Time;durP1;ratioP1;P1;durP2;ratioP2;P2;SDS_P1;SDS_P2;PMS_P1;PMS_P2;Temp;Humidity;BMP_temperature;BMP_pressure;BME280_temperature;BME280_humidity;BME280_pressure;Samples;Min_cycle;Max_cycle;Signal;HPM_P1;HPM_P2
2021/09/25 00:01:41;;;;;;;2.80;2.60;;;;;;;16.19;100.00;100517.88;5131724;27;20177;-72
2021/09/25 00:04:07;;;;;;;5.73;5.27;;;;;;;16.19;100.00;100512.34;5131567;27;20674;-72
2021/09/25 00:06:33;;;;;;;4.67;4.27;;;;;;;16.16;100.00;100518.56;5131770;27;20336;-72
2021/09/25 00:08:58;;;;;;;4.83;4.43;;;;;;;16.16;100.00;100524.88;5131558;27;20208;-72
2021/09/25 00:11:26;;;;;;;7.07;6.37;;;;;;;16.15;100.00;100525.25;5131617;27;20172;-72
2021/09/25 00:13:51;;;;;;;6.47;3.70;;;;;;;16.12;100.00;100512.97;5131273;27;20193;-72
2021/09/25 00:16:17;;;;;;;4.47;4.10;;;;;;;16.11;100.00;100525.13;5131614;27;20707;-72
2021/09/25 00:18:42;;;;;;;5.63;5.10;;;;;;;16.11;100.00;100521.56;5113163;28;20179;-72
2021/09/25 00:21:07;;;;;;;5.60;4.53;;;;;;;16.07;100.00;100521.47;5131654;28;20200;-72
2021/09/25 00:23:33;;;;;;;5.90;5.27;;;;;;;16.03;100.00;100515.81;5131337;28;20196;-72
2021/09/25 00:25:58;;;;;;;7.43;6.63;;;;;;;16.01;100.00;100517.31;5131365;27;20237;-72
2021/09/25 00:28:23;;;;;;;4.37;3.97;;;;;;;16.00;100.00;100522.03;5131341;28;20235;-73
2021/09/25 00:30:49;;;;;;;10.37;6.10;;;;;;;15.96;100.00;100521.13;5131410;28;20208;-72
2021/09/25 00:33:14;;;;;;;8.00;7.27;;;;;;;15.95;100.00;100522.28;5131637;28;20615;-72
2021/09/25 00:35:39;;;;;;;8.13;7.43;;;;;;;15.95;100.00;100529.75;5131094;27;20692;-72
2021/09/25 00:38:05;;;;;;;7.20;6.63;;;;;;;15.96;100.00;100528.59;5131609;28;20540;-72
2021/09/25 00:40:30;;;;;;;6.53;5.97;;;;;;;15.94;100.00;100526.19;5131340;28;20187;-72
2021/09/25 00:42:56;;;;;;;8.03;7.37;;;;;;;15.94;100.00;100526.19;5130958;27;20259;-72
2021/09/25 00:45:22;;;;;;;8.67;6.07;;;;;;;15.91;100.00;100529.63;5131260;28;20221;-72
2021/09/25 00:47:48;;;;;;;7.10;6.50;;;;;;;15.89;100.00;100531.91;5131171;28;20634;-72
2021/09/25 00:50:14;;;;;;;4.50;4.10;;;;;;;15.89;100.00;100531.91;5131309;28;20232;-72
2021/09/25 00:52:40;;;;;;;8.23;7.30;;;;;;;15.89;100.00;100528.34;5131194;28;20183;-72
2021/09/25 00:55:06;;;;;;;8.77;7.93;;;;;;;15.89;100.00;100520.09;5130950;27;20255;-72
2021/09/25 00:57:33;;;;;;;7.73;7.00;;;;;;;15.88;100.00;100535.00;5131077;28;20263;-72
2021/09/25 00:59:58;;;;;;;8.23;6.83;;;;;;;15.88;100.00;100524.00;5131369;28;20204;-72
2021/09/25 01:02:24;;;;;;;8.97;8.10;;;;;;;15.88;100.00;100529.50;5131281;28;20597;-72
2021/09/25 01:04:49;;;;;;;10.13;9.10;;;;;;;15.87;100.00;100534.22;5130826;28;20192;-72
2021/09/25 01:07:15;;;;;;;7.57;6.97;;;;;;;15.88;100.00;100530.31;5128949;28;20656;-72
2021/09/25 01:09:41;;;;;;;8.93;8.13;;;;;;;15.87;100.00;100536.97;5133017;27;20172;-72
2021/09/25 01:12:08;;;;;;;7.80;7.10;;;;;;;15.87;100.00;100528.69;5131335;27;20223;-72
2021/09/25 01:14:34;;;;;;;8.00;7.13;;;;;;;15.86;100.00;100535.38;5126740;27;20176;-72
2021/09/25 01:17:12;;;;;;;10.10;8.93;;;;;;;15.87;100.00;100541.69;5134880;27;20635;-72
2021/09/25 01:19:38;;;;;;;10.33;9.37;;;;;;;15.86;100.00;100538.13;5134321;27;20203;-72
2021/09/25 01:22:05;;;;;;;9.37;8.60;;;;;;;15.87;100.00;100538.91;5134853;27;20683;-72
2021/09/25 01:24:31;;;;;;;10.47;9.57;;;;;;;15.89;100.00;100542.94;5134526;27;20168;-72
2021/09/25 01:26:57;;;;;;;8.70;7.87;;;;;;;15.89;100.00;100548.44;5134982;27;20175;-72
2021/09/25 01:29:24;;;;;;;8.13;7.50;;;;;;;15.90;100.00;100549.25;5134239;27;20537;-72
2021/09/25 01:31:49;;;;;;;9.20;8.40;;;;;;;15.87;100.00;100541.69;5134800;27;20171;-72
2021/09/25 01:34:15;;;;;;;9.57;8.67;;;;;;;15.86;100.00;100540.06;5134568;27;20172;-72
2021/09/25 01:36:40;;;;;;;9.23;8.07;;;;;;;15.82;100.00;100537.22;5134700;27;20293;-72
2021/09/25 01:39:06;;;;;;;9.67;8.77;;;;;;;15.84;100.00;100536.84;5134546;27;20224;-72
2021/09/25 01:41:31;;;;;;;10.67;9.53;;;;;;;15.82;100.00;100537.22;5134587;27;20229;-72
2021/09/25 01:43:56;;;;;;;8.63;7.83;;;;;;;15.84;100.00;100540.41;5134328;27;20624;-72
2021/09/25 01:46:22;;;;;;;11.33;10.33;;;;;;;15.85;100.00;100535.72;5116061;27;20200;-72
2021/09/25 01:48:48;;;;;;;10.57;9.73;;;;;;;15.85;100.00;100536.50;5134465;27;20206;-72
2021/09/25 01:51:13;;;;;;;12.37;11.30;;;;;;;15.86;100.00;100543.63;5134449;27;20659;-72
2021/09/25 01:53:40;;;;;;;12.80;11.60;;;;;;;15.87;100.00;100539.72;5134293;27;20237;-72
2021/09/25 01:56:10;;;;;;;12.10;10.27;;;;;;;15.89;100.00;100537.41;5134354;27;20180;-73
2021/09/25 01:58:35;;;;;;;10.30;9.40;;;;;;;15.95;100.00;100541.56;5135644;27;20164;-72
2021/09/25 02:01:01;;;;;;;11.30;10.37;;;;;;;15.97;100.00;100543.97;5142240;27;20537;-72
2021/09/25 02:03:27;;;;;;;10.87;9.93;;;;;;;15.96;100.00;100548.69;5135398;27;20180;-72
2021/09/25 02:05:53;;;;;;;12.97;11.53;;;;;;;15.95;100.00;100541.56;5134655;27;20184;-72
2021/09/25 02:08:18;;;;;;;10.33;8.70;;;;;;;15.95;100.00;100541.56;5134058;27;20200;-72
2021/09/25 02:10:43;;;;;;;7.90;7.30;;;;;;;15.94;100.00;100536.41;5134195;27;20241;-72
2021/09/25 02:13:09;;;;;;;11.13;10.13;;;;;;;15.89;100.00;100542.94;5133760;27;20168;-72
2021/09/25 02:15:34;;;;;;;10.60;9.67;;;;;;;15.87;100.00;100544.44;5134096;27;20532;-72
2021/09/25 02:18:01;;;;;;;9.87;8.97;;;;;;;15.87;100.00;100549.94;5133851;27;20196;-72
2021/09/25 02:20:27;;;;;;;10.83;9.83;;;;;;;15.87;100.00;100548.00;5133063;27;20252;-72
2021/09/25 02:22:52;;;;;;;11.30;10.30;;;;;;;15.86;100.00;100542.81;5133661;27;20719;-72
2021/09/25 02:25:17;;;;;;;12.40;10.33;;;;;;;15.86;100.00;100538.13;5133609;27;20504;-72
2021/09/25 02:27:43;;;;;;;12.47;11.37;;;;;;;15.87;100.00;100534.22;5133225;27;20214;-72
2021/09/25 02:30:15;;;;;;;12.50;11.40;;;;;;;15.88;100.00;100579.09;5133034;27;20259;-72
2021/09/25 02:32:41;;;;;;;10.50;9.70;;;;;;;15.88;100.00;100524.78;5133663;27;20168;-72
2021/09/25 02:35:07;;;;;;;7.90;7.20;;;;;;;15.87;100.00;100531.47;5132978;27;20169;-72
2021/09/25 02:37:32;;;;;;;11.10;10.10;;;;;;;15.89;100.00;100536.63;5133066;27;20169;-72
2021/09/25 02:39:57;;;;;;;10.60;9.73;;;;;;;15.90;100.00;100533.53;5133280;27;20510;-72
2021/09/25 02:42:23;;;;;;;11.70;10.13;;;;;;;15.91;100.00;100539.84;5133221;27;20200;-72
2021/09/25 02:44:48;;;;;;;7.23;6.63;;;;;;;15.91;100.00;100535.16;5114700;27;20180;-72
2021/09/25 02:47:14;;;;;;;10.77;9.67;;;;;;;15.92;100.00;100541.47;5133489;27;20648;-73
2021/09/25 02:49:39;;;;;;;13.80;12.53;;;;;;;15.90;100.00;100533.53;5133246;27;20168;-72
2021/09/25 02:52:04;;;;;;;11.37;10.07;;;;;;;15.89;100.00;100529.16;5132879;27;20164;-72
2021/09/25 02:54:30;;;;;;;12.37;11.27;;;;;;;15.86;100.00;100532.59;5132976;27;20183;-72
2021/09/25 02:56:55;;;;;;;10.80;9.90;;;;;;;15.85;100.00;100530.19;5132773;27;20164;-72
2021/09/25 02:59:20;;;;;;;11.30;9.70;;;;;;;15.85;100.00;100536.50;5132913;27;20179;-72
2021/09/25 03:01:46;;;;;;;11.47;10.57;;;;;;;15.89;100.00;100539.38;5132796;27;20667;-72
2021/09/25 03:04:11;;;;;;;11.93;10.73;;;;;;;15.88;100.00;100544.09;5132246;27;20188;-72
2021/09/25 03:06:37;;;;;;;13.03;11.67;;;;;;;15.90;100.00;100546.50;5132593;27;20267;-72
2021/09/25 03:09:02;;;;;;;10.60;9.80;;;;;;;15.90;100.00;100535.47;5132486;27;20234;-72
2021/09/25 03:11:28;;;;;;;9.97;9.17;;;;;;;15.88;100.00;100543.28;5132636;27;20236;-72
2021/09/25 03:13:53;;;;;;;13.27;11.23;;;;;;;15.85;100.00;100539.25;5114089;27;20255;-72
2021/09/25 03:16:18;;;;;;;12.13;11.03;;;;;;;15.84;100.00;100537.66;5132814;27;20624;-72
2021/09/25 03:18:44;;;;;;;9.53;8.73;;;;;;;15.83;100.00;100538.00;5132327;27;20221;-72
2021/09/25 03:21:09;;;;;;;12.90;11.83;;;;;;;15.81;100.00;100543.88;5132445;27;20169;-72
2021/09/25 03:23:35;;;;;;;11.00;9.90;;;;;;;15.84;100.00;100534.91;5132224;27;20176;-72
2021/09/25 03:26:00;;;;;;;6.97;6.27;;;;;;;15.84;100.00;100532.16;5132531;27;20671;-72
2021/09/25 03:28:25;;;;;;;11.73;10.80;;;;;;;15.84;100.00;100534.09;5132210;27;20204;-72
2021/09/25 03:30:50;;;;;;;9.67;8.87;;;;;;;15.86;100.00;100531.81;5131660;27;20168;-72
2021/09/25 03:33:16;;;;;;;11.00;10.10;;;;;;;15.86;100.00;100537.31;5131285;27;20211;-72
2021/09/25 03:35:46;;;;;;;10.07;8.37;;;;;;;15.84;100.00;100534.91;5131777;27;20176;-72
2021/09/25 03:38:21;;;;;;;10.83;9.83;;;;;;;15.83;100.00;100524.22;5132303;27;20560;-72
2021/09/25 03:40:46;;;;;;;10.60;9.67;;;;;;;15.81;100.00;100535.59;5132216;27;20182;-72
2021/09/25 03:43:12;;;;;;;4.80;4.40;;;;;;;15.81;100.00;100537.56;5131951;27;20173;-72
2021/09/25 03:45:38;;;;;;;12.97;11.87;;;;;;;15.80;100.00;100525.72;5131722;27;20173;-72
2021/09/25 03:48:05;;;;;;;5.90;5.37;;;;;;;15.81;100.00;100534.81;5131614;27;20196;-72
2021/09/25 03:50:31;;;;;;;11.60;10.53;;;;;;;15.82;100.00;100531.69;5131935;27;20329;-73
2021/09/25 03:52:57;;;;;;;6.03;5.53;;;;;;;15.81;100.00;100530.09;5113490;27;20620;-72
2021/09/25 03:55:23;;;;;;;5.90;5.13;;;;;;;15.80;100.00;100528.50;5131581;27;20164;-72
2021/09/25 03:57:48;;;;;;;11.30;10.40;;;;;;;15.79;100.00;100532.41;5131711;27;20175;-72
2021/09/25 04:00:13;;;;;;;13.13;11.93;;;;;;;15.79;100.00;100526.06;5131666;27;20225;-72
2021/09/25 04:02:39;;;;;;;12.00;10.90;;;;;;;15.78;100.00;100533.53;5131562;27;20172;-72
2021/09/25 04:05:05;;;;;;;11.00;10.07;;;;;;;15.77;100.00;100529.19;5131577;27;20184;-72
2021/09/25 04:07:30;;;;;;;11.77;10.77;;;;;;;15.74;100.00;100522.38;5113054;28;20196;-72
2021/09/25 04:09:55;;;;;;;10.73;9.63;;;;;;;15.72;100.00;100529.38;5131719;27;20636;-72
2021/09/25 04:12:21;;;;;;;11.77;10.77;;;;;;;15.71;100.00;100530.53;5131587;27;20164;-72
2021/09/25 04:14:46;;;;;;;10.43;9.53;;;;;;;15.72;100.00;100524.69;5131238;27;20662;-72
2021/09/25 04:17:11;;;;;;;11.23;10.30;;;;;;;15.73;100.00;100523.53;5113063;27;20180;-72
2021/09/25 04:19:37;;;;;;;9.37;8.60;;;;;;;15.72;100.00;100524.69;5131540;27;20172;-72
2021/09/25 04:22:02;;;;;;;7.43;6.83;;;;;;;15.72;100.00;100529.38;5131601;27;20291;-72
2021/09/25 04:24:28;;;;;;;8.77;8.07;;;;;;;15.69;100.00;100528.13;5131204;27;20224;-72
2021/09/25 04:26:53;;;;;;;12.27;11.13;;;;;;;15.69;100.00;100525.38;5131196;28;20168;-72
2021/09/25 04:29:18;;;;;;;8.93;8.20;;;;;;;15.69;100.00;100525.38;5131076;27;20184;-72
2021/09/25 04:31:46;;;;;;;4.63;4.33;;;;;;;15.69;100.00;100524.56;5113082;28;20225;-72
2021/09/25 04:34:12;;;;;;;11.00;9.93;;;;;;;15.70;100.00;100529.75;5131105;28;20659;-72
2021/09/25 04:36:40;;;;;;;11.50;10.50;;;;;;;15.71;100.00;100534.09;5131448;27;20252;-72
2021/09/25 04:39:06;;;;;;;11.97;10.90;;;;;;;15.69;100.00;100533.66;5131344;27;20172;-72
2021/09/25 04:41:32;;;;;;;11.17;10.27;;;;;;;15.69;100.00;100539.16;5131234;28;20608;-72
2021/09/25 04:43:57;;;;;;;8.40;4.80;;;;;;;15.69;100.00;100546.63;5131766;27;20179;-72
2021/09/25 04:46:23;;;;;;;12.77;11.67;;;;;;;15.69;100.00;100546.63;5135353;27;20555;-72
2021/09/25 04:48:48;;;;;;;8.53;7.83;;;;;;;15.69;100.00;100541.91;5135302;27;20299;-72
2021/09/25 04:51:15;;;;;;;11.37;10.20;;;;;;;15.69;100.00;100550.16;5135270;27;20243;-72
2021/09/25 04:53:42;;;;;;;9.27;8.03;;;;;;;15.70;100.00;100545.47;5135259;27;20168;-72
2021/09/25 04:56:07;;;;;;;9.73;8.83;;;;;;;15.70;100.00;100548.22;5135383;27;20552;-72
2021/09/25 04:58:33;;;;;;;11.47;10.57;;;;;;;15.70;100.00;100537.19;5135058;27;20164;-72
2021/09/25 05:00:58;;;;;;;11.53;10.47;;;;;;;15.71;100.00;100544.31;5135178;27;20164;-72
2021/09/25 05:03:24;;;;;;;13.27;12.20;;;;;;;15.70;100.00;100542.72;5134968;27;20177;-72
2021/09/25 05:05:50;;;;;;;12.87;11.03;;;;;;;15.70;100.00;100553.72;5132090;27;20252;-72
2021/09/25 05:08:15;;;;;;;9.73;8.90;;;;;;;15.71;100.00;100550.63;5134754;27;20196;-72
2021/09/25 05:10:40;;;;;;;9.43;8.60;;;;;;;15.70;100.00;100553.72;5123109;27;20238;-72
2021/09/25 05:13:06;;;;;;;13.07;11.90;;;;;;;15.72;100.00;100552.22;5130764;27;20597;-72
2021/09/25 05:15:31;;;;;;;12.57;11.40;;;;;;;15.73;100.00;100550.28;5134974;27;20179;-72
2021/09/25 05:17:57;;;;;;;12.93;11.63;;;;;;;15.73;100.00;100550.28;5135021;27;20180;-72
2021/09/25 05:20:22;;;;;;;15.70;11.90;;;;;;;15.75;100.00;100556.25;5134962;27;20176;-72
2021/09/25 05:22:47;;;;;;;8.53;7.77;;;;;;;15.74;100.00;100552.69;5135111;27;20543;-72
2021/09/25 05:25:13;;;;;;;7.07;6.47;;;;;;;15.75;100.00;100545.22;5134619;27;20639;-72
2021/09/25 05:27:39;;;;;;;9.50;8.73;;;;;;;15.74;100.00;100551.88;5134604;27;20203;-72
2021/09/25 05:30:07;;;;;;;14.07;12.77;;;;;;;15.74;100.00;100555.44;5134435;27;20184;-73
2021/09/25 05:32:33;;;;;;;8.83;8.00;;;;;;;15.75;100.00;100550.75;5134706;27;20169;-72
2021/09/25 05:34:58;;;;;;;10.83;9.97;;;;;;;15.76;100.00;100550.38;5134431;27;20187;-72
2021/09/25 05:37:24;;;;;;;9.87;7.77;;;;;;;15.75;100.00;100565.31;5135104;27;20177;-72
2021/09/25 05:39:54;;;;;;;12.27;11.07;;;;;;;15.77;100.00;100556.72;5134469;27;20631;-72
2021/09/25 05:42:20;;;;;;;10.03;9.03;;;;;;;15.77;100.00;100565.78;5134601;27;20176;-72
2021/09/25 05:44:46;;;;;;;10.83;9.77;;;;;;;15.76;100.00;100561.41;5134149;27;20598;-72
2021/09/25 05:47:12;;;;;;;10.93;9.93;;;;;;;15.79;100.00;100561.91;5134480;27;20316;-72
2021/09/25 05:49:38;;;;;;;11.77;10.77;;;;;;;15.79;100.00;100557.19;5115990;27;20271;-72
2021/09/25 05:52:06;;;;;;;12.83;11.73;;;;;;;15.80;100.00;100561.56;5134237;27;20169;-72
2021/09/25 05:54:31;;;;;;;12.50;9.10;;;;;;;15.80;100.00;100560.75;5134104;27;20578;-72
2021/09/25 05:56:57;;;;;;;13.93;12.00;;;;;;;15.83;100.00;100560.06;5133274;27;20169;-72
2021/09/25 05:59:22;;;;;;;12.53;11.43;;;;;;;15.85;100.00;100569.56;5134164;27;20180;-72
2021/09/25 06:01:49;;;;;;;7.87;7.10;;;;;;;15.86;100.00;100573.13;5134270;27;20172;-72
2021/09/25 06:04:14;;;;;;;11.17;10.17;;;;;;;15.87;100.00;100564.53;5134064;27;20225;-72
2021/09/25 06:06:40;;;;;;;10.43;9.43;;;;;;;15.90;100.00;100574.03;5115450;27;20176;-72
2021/09/25 06:09:05;;;;;;;9.30;8.57;;;;;;;15.88;100.00;100571.63;5133840;27;20675;-72
2021/09/25 06:11:30;;;;;;;12.50;10.80;;;;;;;15.88;100.00;100579.91;5133885;27;20200;-72
2021/09/25 06:13:56;;;;;;;8.10;7.50;;;;;;;15.91;100.00;100575.66;5133785;27;20251;-73
2021/09/25 06:16:21;;;;;;;8.20;7.50;;;;;;;15.92;100.00;100577.28;5133895;27;20265;-72
2021/09/25 06:18:46;;;;;;;9.33;8.57;;;;;;;15.92;100.00;100572.56;5133794;27;20641;-73
2021/09/25 06:21:12;;;;;;;9.97;8.87;;;;;;;15.94;100.00;100583.25;5133701;27;20173;-73
2021/09/25 06:23:38;;;;;;;10.23;9.30;;;;;;;15.96;100.00;100579.00;5133695;27;20172;-73
2021/09/25 06:26:04;;;;;;;7.97;7.30;;;;;;;15.96;100.00;100587.28;5133593;27;20170;-72
2021/09/25 06:28:29;;;;;;;11.67;10.57;;;;;;;15.98;100.00;100590.47;5133645;27;20200;-73
2021/09/25 06:30:55;;;;;;;8.10;7.40;;;;;;;15.99;100.00;100588.53;5133443;27;20169;-72
2021/09/25 06:33:20;;;;;;;11.07;7.87;;;;;;;16.00;100.00;100588.19;5114959;27;20169;-73
2021/09/25 06:35:46;;;;;;;9.90;9.10;;;;;;;15.98;100.00;100589.69;5133238;27;20176;-75
2021/09/25 06:38:12;;;;;;;7.90;7.20;;;;;;;15.99;100.00;100586.56;5133481;27;20176;-74
2021/09/25 06:40:37;;;;;;;7.83;7.13;;;;;;;16.00;100.00;100584.63;5133472;27;20433;-74
2021/09/25 06:43:03;;;;;;;7.20;6.60;;;;;;;16.03;100.00;100584.72;5114819;27;20760;-74
2021/09/25 06:45:32;;;;;;;6.87;6.27;;;;;;;16.04;100.00;100580.81;5133131;27;20164;-73
2021/09/25 06:47:58;;;;;;;8.43;7.63;;;;;;;16.05;100.00;100584.38;5133147;27;20217;-75
2021/09/25 06:50:25;;;;;;;7.30;6.70;;;;;;;16.05;100.00;100587.13;5133274;27;20195;-74
2021/09/25 06:52:50;;;;;;;7.03;6.47;;;;;;;16.08;100.00;100591.19;5133473;27;20173;-74
2021/09/25 06:55:15;;;;;;;7.13;6.53;;;;;;;16.07;100.00;100584.88;5132949;27;20499;-74
2021/09/25 06:57:41;;;;;;;6.97;5.40;;;;;;;16.06;100.00;100584.06;5132763;27;20183;-73
2021/09/25 07:00:06;;;;;;;7.60;6.90;;;;;;;16.02;100.00;100594.16;5132877;27;20207;-74
2021/09/25 07:02:38;;;;;;;5.87;5.27;;;;;;;16.03;100.00;100595.75;5114770;27;20196;-73
2021/09/25 07:05:06;;;;;;;6.70;6.13;;;;;;;16.03;100.00;100603.22;5132514;27;20644;-74
2021/09/25 07:07:31;;;;;;;7.20;6.70;;;;;;;16.05;100.00;100598.97;5129412;27;20272;-72
2021/09/25 07:09:57;;;;;;;4.90;4.57;;;;;;;16.08;100.00;100611.28;5112735;27;20208;-74
2021/09/25 07:12:22;;;;;;;6.20;5.70;;;;;;;16.10;100.00;100610.94;5131888;27;20164;-74
2021/09/25 07:14:47;;;;;;;6.07;5.57;;;;;;;16.12;100.00;100616.91;5131827;27;20662;-73
2021/09/25 07:17:13;;;;;;;5.10;4.80;;;;;;;16.12;100.00;100614.94;5132314;27;20172;-74
2021/09/25 07:19:39;;;;;;;3.20;2.90;;;;;;;16.11;100.00;100618.84;5132503;27;20176;-73
2021/09/25 07:22:07;;;;;;;5.37;4.90;;;;;;;16.14;100.00;100626.44;5132681;27;20620;-74
2021/09/25 07:24:34;;;;;;;4.87;4.33;;;;;;;16.17;100.00;100624.94;5132278;27;20173;-74
2021/09/25 07:26:59;;;;;;;4.93;4.53;;;;;;;16.17;100.00;100630.44;5132568;27;20181;-74
2021/09/25 07:29:25;;;;;;;5.30;4.80;;;;;;;16.16;100.00;100637.91;5132243;27;20200;-75
2021/09/25 07:31:50;;;;;;;6.20;5.60;;;;;;;16.19;100.00;100633.66;5132526;27;20172;-74
2021/09/25 07:34:15;;;;;;;3.80;3.40;;;;;;;16.21;100.00;100636.91;5132427;27;20255;-74
2021/09/25 07:36:41;;;;;;;1.80;1.70;;;;;;;16.21;100.00;100636.91;5132172;27;20574;-74
2021/09/25 07:39:06;;;;;;;3.00;2.70;;;;;;;16.20;100.00;100629.75;5131326;27;20233;-74
2021/09/25 07:41:32;;;;;;;4.37;3.97;;;;;;;16.22;100.00;100636.56;5132226;27;20161;-74
2021/09/25 07:43:59;;;;;;;3.07;2.40;;;;;;;16.28;100.00;100635.16;5131592;27;20251;-74
2021/09/25 07:46:25;;;;;;;1.10;1.00;;;;;;;16.28;100.00;100640.69;5132076;27;20582;-74
2021/09/25 07:48:50;;;;;;;1.43;1.33;;;;;;;16.27;100.00;100639.06;5131784;27;20256;-78
2021/09/25 07:51:16;;;;;;;4.77;4.23;;;;;;;16.30;100.00;100632.84;5131760;27;20164;-75
2021/09/25 07:53:41;;;;;;;1.80;1.70;;;;;;;16.37;100.00;100646.09;5131613;27;20413;-73
2021/09/25 07:56:06;;;;;;;4.57;3.60;;;;;;;16.37;100.00;100637.81;5131757;27;20584;-73
2021/09/25 07:58:32;;;;;;;3.30;3.00;;;;;;;16.41;100.00;100644.22;5113107;27;20168;-74
2021/09/25 08:00:57;;;;;;;3.00;2.67;;;;;;;16.45;100.00;100653.41;5131789;27;20204;-74
2021/09/25 08:03:22;;;;;;;3.37;3.07;;;;;;;16.45;100.00;100652.63;5131633;27;20173;-73
2021/09/25 08:05:48;;;;;;;4.17;3.10;;;;;;;16.49;100.00;100654.34;5131451;27;20639;-73
2021/09/25 08:08:13;;;;;;;2.97;2.57;;;;;;;16.55;100.00;100664.00;5131548;27;20549;-72
2021/09/25 08:10:39;;;;;;;3.70;3.40;;;;;;;16.60;100.00;100669.25;5131697;27;20179;-73
2021/09/25 08:13:04;;;;;;;2.57;2.37;;;;;;;16.65;100.00;100669.06;5131617;27;20200;-73
2021/09/25 08:15:29;;;;;;;2.33;2.13;;;;;;;16.72;100.00;100674.00;5131524;27;20767;-73
2021/09/25 08:17:55;;;;;;;3.80;3.40;;;;;;;16.70;100.00;100665.28;5131469;27;20218;-73
2021/09/25 08:20:23;;;;;;;2.93;2.63;;;;;;;16.74;100.00;100671.69;5131284;27;20180;-73
2021/09/25 08:22:49;;;;;;;0.87;0.87;;;;;;;16.77;100.00;100675.72;5131649;27;20168;-73
2021/09/25 08:25:15;;;;;;;2.83;1.63;;;;;;;16.72;100.00;100678.72;5131406;28;20179;-73
2021/09/25 08:27:41;;;;;;;2.97;2.43;;;;;;;16.73;100.00;100674.81;5131451;28;20196;-73
2021/09/25 08:30:08;;;;;;;1.90;1.60;;;;;;;16.76;100.00;100688.69;5113142;28;20624;-73
2021/09/25 08:32:34;;;;;;;2.83;2.30;;;;;;;16.81;100.00;100687.69;5135559;28;20176;-73
2021/09/25 08:35:00;;;;;;;2.03;1.87;;;;;;;16.83;100.00;100686.19;5136453;28;20173;-74
2021/09/25 08:37:25;;;;;;;1.30;1.20;;;;;;;16.77;100.00;100693.06;5132385;28;20173;-74
2021/09/25 08:39:51;;;;;;;3.27;2.27;;;;;;;16.79;100.00;100698.25;5131444;28;20382;-75
2021/09/25 08:42:18;;;;;;;3.13;2.83;;;;;;;16.83;100.00;100699.97;5112693;28;20229;-74
2021/09/25 08:44:44;;;;;;;4.33;2.50;;;;;;;16.93;100.00;100701.47;5112512;28;20172;-75
2021/09/25 08:47:10;;;;;;;4.13;2.87;;;;;;;17.11;100.00;100713.84;5131118;28;20177;-75
2021/09/25 08:49:36;;;;;;;3.20;2.90;;;;;;;17.16;100.00;100713.59;5112731;28;20176;-75
2021/09/25 08:52:01;;;;;;;2.43;2.23;;;;;;;17.16;100.00;100712.78;5112720;28;20233;-74
2021/09/25 08:54:27;;;;;;;3.20;2.70;;;;;;;17.13;100.00;100714.28;5130762;28;20172;-74
2021/09/25 08:56:53;;;;;;;2.13;1.93;;;;;;;17.15;100.00;100702.91;5130894;28;20191;-75
2021/09/25 08:59:18;;;;;;;2.40;2.20;;;;;;;17.24;100.00;100711.84;5130999;28;20222;-74
2021/09/25 09:01:44;;;;;;;3.20;2.77;;;;;;;17.49;99.53;100713.34;5131012;28;20180;-75
2021/09/25 09:04:10;;;;;;;3.03;2.37;;;;;;;17.62;96.80;100716.88;5130692;28;20179;-74
2021/09/25 09:06:36;;;;;;;2.40;2.13;;;;;;;17.62;96.10;100714.13;5130942;28;20196;-74
2021/09/25 09:09:07;;;;;;;3.17;2.40;;;;;;;17.50;96.13;100715.00;5130912;28;20249;-74
2021/09/25 09:11:32;;;;;;;2.40;2.20;;;;;;;17.46;96.50;100704.97;5131094;28;20636;-74
2021/09/25 09:14:00;;;;;;;3.00;2.70;;;;;;;17.34;96.73;100705.00;5130621;28;20268;-75
2021/09/25 09:16:27;;;;;;;2.97;2.60;;;;;;;17.32;97.46;100708.13;5130809;28;20179;-74
2021/09/25 09:18:54;;;;;;;2.50;2.30;;;;;;;17.52;98.05;100714.63;5130867;28;20169;-74
2021/09/25 09:21:24;;;;;;;2.97;2.70;;;;;;;17.71;96.31;100719.53;5130788;28;20180;-74
2021/09/25 09:23:51;;;;;;;2.13;1.97;;;;;;;17.78;94.25;100717.75;5130624;28;20669;-75
2021/09/25 09:26:22;;;;;;;2.63;2.40;;;;;;;17.88;95.02;100721.16;5130640;28;20172;-74
2021/09/25 09:28:49;;;;;;;2.67;2.17;;;;;;;17.92;93.75;100722.06;5131013;28;20208;-75
2021/09/25 09:31:15;;;;;;;2.70;1.83;;;;;;;18.03;93.66;100725.91;5131705;27;20168;-74
2021/09/25 09:33:47;;;;;;;0.70;0.70;;;;;;;18.10;91.77;100718.63;5134163;27;20650;-74
2021/09/25 09:36:20;;;;;;;1.97;1.80;;;;;;;18.05;91.09;100724.41;5134377;27;20636;-74
2021/09/25 09:38:53;;;;;;;2.63;2.43;;;;;;;18.24;93.08;100723.72;5134416;27;20632;-74
2021/09/25 09:41:35;;;;;;;2.50;2.03;;;;;;;18.51;91.06;100723.97;5131752;27;20275;-74
2021/09/25 09:44:07;;;;;;;2.57;2.37;;;;;;;18.71;90.29;100723.72;5128156;27;20199;-74
2021/09/25 09:46:51;;;;;;;2.87;2.67;;;;;;;18.63;89.17;100723.88;5134268;27;20177;-74
2021/09/25 09:49:31;;;;;;;2.20;1.77;;;;;;;18.51;89.99;100719.22;5134053;27;20252;-74
2021/09/25 09:52:02;;;;;;;3.07;2.87;;;;;;;18.54;89.25;100734.34;5134228;27;20171;-75
2021/09/25 09:54:30;;;;;;;2.00;1.90;;;;;;;18.68;88.44;100723.66;5115062;27;20441;-74
2021/09/25 09:57:09;;;;;;;3.30;1.67;;;;;;;18.69;86.88;100733.56;5115494;27;20591;-75
2021/09/25 09:59:36;;;;;;;3.13;1.80;;;;;;;18.57;87.34;100734.41;5134212;27;20165;-75
2021/09/25 10:02:02;;;;;;;1.23;1.07;;;;;;;18.58;87.68;100730.50;5133947;27;20164;-74
2021/09/25 10:04:27;;;;;;;2.50;2.30;;;;;;;18.55;88.73;100730.41;5133683;27;20195;-74
2021/09/25 10:06:53;;;;;;;4.30;2.50;;;;;;;18.56;88.43;100723.72;5133814;27;20275;-74
2021/09/25 10:09:24;;;;;;;4.47;2.27;;;;;;;18.40;87.87;100729.25;5133585;27;20252;-79
2021/09/25 10:11:52;;;;;;;3.73;1.00;;;;;;;18.46;87.45;100721.47;5115837;27;20547;-74
2021/09/25 10:14:21;;;;;;;0.93;0.93;;;;;;;18.46;87.27;100738.09;5133420;27;20176;-74
2021/09/25 10:16:47;;;;;;;2.50;2.30;;;;;;;18.36;87.65;100734.69;5133608;27;20220;-74
2021/09/25 10:19:16;;;;;;;2.57;2.37;;;;;;;18.37;88.73;100736.31;5133582;27;20177;-74
2021/09/25 10:21:43;;;;;;;0.60;0.60;;;;;;;18.37;88.06;100732.72;5133370;27;20176;-74
2021/09/25 10:24:13;;;;;;;2.63;2.43;;;;;;;18.38;89.53;100735.16;5133442;27;20180;-74
2021/09/25 10:26:44;;;;;;;2.50;2.20;;;;;;;18.41;87.87;100726.13;5133501;27;20176;-74
2021/09/25 10:29:11;;;;;;;1.97;1.87;;;;;;;18.50;88.74;100730.66;5133303;27;20197;-74
2021/09/25 10:31:37;;;;;;;3.70;2.37;;;;;;;18.61;88.92;100740.84;5133300;27;20172;-74
2021/09/25 10:34:12;;;;;;;2.20;2.00;;;;;;;18.71;88.90;100742.31;5114577;27;20200;-75
2021/09/25 10:36:50;;;;;;;2.03;1.90;;;;;;;18.79;87.71;100741.28;5133212;27;20191;-73
2021/09/25 10:39:39;;;;;;;2.80;2.47;;;;;;;18.79;87.49;100746.03;5133192;27;20620;-75
2021/09/25 10:42:13;;;;;;;2.93;2.63;;;;;;;18.80;86.78;100742.88;5132711;27;20251;-74
2021/09/25 10:44:50;;;;;;;2.20;2.00;;;;;;;18.83;88.04;100741.41;5132723;27;20187;-74
2021/09/25 10:47:24;;;;;;;2.53;2.30;;;;;;;18.83;86.33;100738.63;5132914;27;20161;-75
2021/09/25 10:50:00;;;;;;;2.07;1.87;;;;;;;18.95;86.67;100744.03;5133274;27;20277;-74
2021/09/25 10:53:06;;;;;;;2.33;2.13;;;;;;;18.95;86.84;100750.41;5132885;27;20164;-74
2021/09/25 10:55:32;;;;;;;2.10;2.00;;;;;;;18.84;86.49;100746.56;5132309;27;20167;-74
2021/09/25 10:58:26;;;;;;;4.63;2.20;;;;;;;18.75;87.13;100751.47;5132806;27;20165;-74
2021/09/25 11:00:51;;;;;;;2.27;2.10;;;;;;;18.79;86.92;100741.28;5132702;27;20161;-74
2021/09/25 11:03:41;;;;;;;2.90;2.47;;;;;;;18.93;87.56;100749.13;5132776;27;20519;-74
2021/09/25 11:06:09;;;;;;;5.43;2.37;;;;;;;19.09;86.00;100754.63;5132484;27;20180;-74
2021/09/25 11:08:36;;;;;;;2.90;2.60;;;;;;;19.18;87.14;100753.28;5132430;27;20252;-74
2021/09/25 11:11:13;;;;;;;2.33;2.20;;;;;;;19.24;87.10;100756.53;5132470;27;20213;-74
2021/09/25 11:14:00;;;;;;;7.60;2.20;;;;;;;19.07;86.73;100745.88;5132240;27;20307;-74